Time;durP1;ratioP1;P1;durP2;ratioP2;P2;SDS_P1;SDS_P2;PMS_P1;PMS_P2;Temp;Humidity;BMP_temperature;BMP_pressure;BME280_temperature;BME280_humidity;BME280_pressure;Samples;Min_cycle;Max_cycle;Signal;HPM_P1;HPM_P2
2021/01/25 00:02:06;;;;;;;36.47;21.80;;;7.20;90.60;;;;;;4917129;29;20491;-74
2021/01/25 00:04:32;;;;;;;38.40;22.23;;;7.20;90.60;;;;;;4916872;29;20047;-75
2021/01/25 00:06:58;;;;;;;34.58;20.73;;;7.20;90.50;;;;;;4918175;29;20070;-73
2021/01/25 00:09:24;;;;;;;36.53;21.30;;;7.20;90.50;;;;;;4918679;29;20048;-73
2021/01/25 00:11:50;;;;;;;34.45;19.52;;;7.20;90.50;;;;;;4918093;29;20043;-74
2021/01/25 00:14:16;;;;;;;36.92;20.85;;;7.20;90.40;;;;;;4917199;29;20043;-75
2021/01/25 00:16:41;;;;;;;36.95;20.88;;;7.20;90.40;;;;;;4918126;29;20123;-75
2021/01/25 00:19:07;;;;;;;35.63;21.27;;;7.20;90.40;;;;;;4917970;29;20529;-73
2021/01/25 00:21:33;;;;;;;36.03;21.17;;;7.20;90.40;;;;;;4917094;29;20131;-73
2021/01/25 00:23:59;;;;;;;32.63;20.38;;;7.20;90.40;;;;;;4917974;29;20044;-74
2021/01/25 00:26:25;;;;;;;33.88;19.65;;;7.20;90.40;;;;;;4918224;29;20487;-73
2021/01/25 00:28:51;;;;;;;32.08;19.80;;;7.30;90.40;;;;;;4916514;29;20410;-74
2021/01/25 00:31:18;;;;;;;29.35;18.05;;;7.20;90.30;;;;;;4916764;29;20533;-74
2021/01/25 00:33:44;;;;;;;31.83;19.58;;;7.30;90.30;;;;;;4916733;29;20040;-74
2021/01/25 00:36:10;;;;;;;28.92;18.77;;;7.20;90.30;;;;;;4916737;29;20406;-72
2021/01/25 00:38:36;;;;;;;29.25;18.98;;;7.30;90.50;;;;;;4917852;29;20051;-74
2021/01/25 00:41:02;;;;;;;27.90;17.73;;;7.30;90.20;;;;;;4917687;29;20048;-73
2021/01/25 00:43:28;;;;;;;29.75;17.42;;;7.20;90.10;;;;;;4916215;29;20083;-76
2021/01/25 00:45:54;;;;;;;27.08;16.45;;;7.20;90.10;;;;;;4917500;29;20068;-74
2021/01/25 00:48:20;;;;;;;26.48;16.90;;;7.30;90.10;;;;;;4917783;29;20473;-74
2021/01/25 00:50:46;;;;;;;27.95;17.08;;;7.30;90.10;;;;;;4916574;29;20032;-72
2021/01/25 00:53:13;;;;;;;29.08;17.75;;;7.30;90.10;;;;;;4900914;29;20032;-75
2021/01/25 00:55:39;;;;;;;29.05;17.58;;;7.30;90.00;;;;;;4900454;29;20050;-73
2021/01/25 00:58:05;;;;;;;26.48;16.08;;;7.30;90.00;;;;;;4917743;29;20043;-74
2021/01/25 01:00:31;;;;;;;27.70;16.75;;;7.30;90.00;;;;;;4900635;29;20036;-73
2021/01/25 01:02:57;;;;;;;24.20;15.82;;;7.30;90.00;;;;;;4916212;29;20508;-74
2021/01/25 01:05:23;;;;;;;23.85;15.32;;;7.30;89.90;;;;;;4917624;29;20043;-73
2021/01/25 01:07:49;;;;;;;25.92;15.77;;;7.30;89.80;;;;;;4917204;29;20502;-74
2021/01/25 01:10:15;;;;;;;26.75;15.88;;;7.30;89.70;;;;;;4917377;29;20107;-74
2021/01/25 01:12:41;;;;;;;23.33;15.43;;;7.30;89.70;;;;;;4917157;29;20596;-74
2021/01/25 01:15:11;;;;;;;20.48;14.63;;;7.30;89.70;;;;;;4917379;29;20043;-73
2021/01/25 01:17:38;;;;;;;24.88;14.48;;;7.30;89.50;;;;;;4916939;29;20091;-74
2021/01/25 01:20:06;;;;;;;24.85;14.65;;;7.30;89.40;;;;;;4915845;29;20638;-73
2021/01/25 01:22:32;;;;;;;21.73;14.18;;;7.30;89.40;;;;;;4916848;29;20095;-74
2021/01/25 01:24:58;;;;;;;22.17;14.23;;;7.30;89.30;;;;;;4916641;29;20035;-74
2021/01/25 01:27:24;;;;;;;20.48;13.02;;;7.30;89.20;;;;;;4900009;29;20044;-73
2021/01/25 01:29:52;;;;;;;22.42;13.80;;;7.30;89.10;;;;;;4916139;29;20050;-73
2021/01/25 01:32:19;;;;;;;24.75;14.70;;;7.30;89.00;;;;;;4916938;29;20046;-73
2021/01/25 01:34:45;;;;;;;20.52;13.35;;;7.30;88.90;;;;;;4915680;29;20043;-72
2021/01/25 01:37:12;;;;;;;20.58;13.40;;;7.30;88.80;;;;;;4915943;29;20399;-73
2021/01/25 01:39:38;;;;;;;22.10;13.50;;;7.30;88.70;;;;;;4915715;29;20060;-74
2021/01/25 01:42:05;;;;;;;18.00;12.35;;;7.30;88.60;;;;;;4915547;29;20075;-75
2021/01/25 01:44:31;;;;;;;18.85;11.73;;;7.30;88.50;;;;;;4916787;29;20040;-74
2021/01/25 01:46:57;;;;;;;20.80;12.68;;;7.30;88.50;;;;;;4915154;29;20051;-74
2021/01/25 01:49:23;;;;;;;19.13;12.23;;;7.30;88.30;;;;;;4916451;29;20039;-74
2021/01/25 01:51:49;;;;;;;18.50;11.13;;;7.30;88.20;;;;;;4916453;29;20079;-74
2021/01/25 01:54:18;;;;;;;17.33;11.93;;;7.30;88.10;;;;;;4915563;29;20059;-74
2021/01/25 01:56:43;;;;;;;16.92;11.25;;;7.30;88.00;;;;;;4916528;29;20104;-74
2021/01/25 01:59:09;;;;;;;20.58;12.25;;;7.30;87.80;;;;;;4916640;29;20134;-74
2021/01/25 02:01:35;;;;;;;20.85;11.73;;;7.30;87.80;;;;;;4915246;29;20032;-73
2021/01/25 02:04:03;;;;;;;18.52;11.93;;;7.30;87.60;;;;;;4916282;29;20044;-73
2021/01/25 02:06:31;;;;;;;17.20;11.40;;;7.30;87.50;;;;;;4915212;29;20111;-74
2021/01/25 02:09:01;;;;;;;17.85;10.50;;;7.30;87.50;;;;;;4899512;29;20036;-73
2021/01/25 02:11:29;;;;;;;18.63;10.77;;;7.30;87.40;;;;;;4915308;29;20043;-72
2021/01/25 02:13:56;;;;;;;19.05;10.90;;;7.30;87.30;;;;;;4915039;29;20139;-72
2021/01/25 02:16:22;;;;;;;16.30;10.73;;;7.30;87.20;;;;;;4916345;29;20465;-72
2021/01/25 02:18:47;;;;;;;16.98;10.80;;;7.30;87.10;;;;;;4916143;29;20036;-73
2021/01/25 02:21:16;;;;;;;15.07;9.93;;;7.30;87.00;;;;;;4915433;29;20038;-73
2021/01/25 02:24:06;;;;;;;16.90;11.07;;;7.30;87.00;;;;;;4916201;29;20044;-73
2021/01/25 02:26:58;;;;;;;16.02;10.85;;;7.30;86.80;;;;;;4916049;29;20044;-74
2021/01/25 02:29:24;;;;;;;16.60;10.85;;;7.30;86.80;;;;;;4915134;29;20044;-73
2021/01/25 02:31:51;;;;;;;15.65;10.93;;;7.30;87.30;;;;;;4914892;29;20494;-73
2021/01/25 02:34:18;;;;;;;13.95;9.32;;;7.30;86.60;;;;;;4915203;29;20055;-73
2021/01/25 02:36:45;;;;;;;15.77;10.02;;;7.30;86.60;;;;;;4914868;29;20044;-72
2021/01/25 02:39:12;;;;;;;15.07;10.48;;;7.30;86.50;;;;;;4919681;29;20052;-73
2021/01/25 02:41:40;;;;;;;15.77;9.77;;;7.30;86.40;;;;;;4920032;29;20048;-73
2021/01/25 02:44:10;;;;;;;15.00;9.75;;;7.30;86.40;;;;;;4918313;29;20056;-73
2021/01/25 02:46:36;;;;;;;15.25;9.57;;;7.30;86.30;;;;;;4902810;29;20036;-74
2021/01/25 02:49:02;;;;;;;13.35;8.88;;;7.30;86.30;;;;;;4920073;29;20579;-74
2021/01/25 02:51:28;;;;;;;14.57;9.60;;;7.40;86.20;;;;;;4919709;29;20032;-75
2021/01/25 02:53:54;;;;;;;13.45;9.43;;;7.30;86.10;;;;;;4918484;29;20566;-74
2021/01/25 02:56:21;;;;;;;12.45;8.73;;;7.40;86.70;;;;;;4919842;29;20044;-73
2021/01/25 02:58:49;;;;;;;13.65;8.68;;;7.30;85.90;;;;;;4919948;29;20127;-73
2021/01/25 03:01:15;;;;;;;14.05;9.10;;;7.30;85.90;;;;;;4919760;29;20127;-73
2021/01/25 03:03:42;;;;;;;12.32;8.77;;;7.30;85.90;;;;;;4919586;29;20111;-74
2021/01/25 03:06:10;;;;;;;15.00;8.88;;;7.30;85.80;;;;;;4918169;29;20032;-74
2021/01/25 03:08:36;;;;;;;14.50;8.73;;;7.30;85.70;;;;;;4918201;29;20218;-74
2021/01/25 03:11:03;;;;;;;11.82;8.32;;;7.30;85.70;;;;;;4918307;29;20507;-72
2021/01/25 03:13:29;;;;;;;13.05;8.20;;;7.30;85.60;;;;;;4918241;29;20067;-73
2021/01/25 03:15:59;;;;;;;12.32;8.60;;;7.30;85.50;;;;;;4919452;29;20032;-74
2021/01/25 03:18:26;;;;;;;13.70;9.02;;;7.30;85.50;;;;;;4919174;29;20130;-73
2021/01/25 03:20:53;;;;;;;12.98;8.45;;;7.30;85.50;;;;;;4917818;29;20040;-73
2021/01/25 03:23:19;;;;;;;14.82;8.70;;;7.30;85.40;;;;;;4918924;29;20049;-73
2021/01/25 03:25:46;;;;;;;10.45;8.10;;;7.40;85.40;;;;;;4917969;29;20036;-74
2021/01/25 03:28:12;;;;;;;14.43;9.00;;;7.30;85.30;;;;;;4919306;29;20041;-73
2021/01/25 03:30:38;;;;;;;12.10;7.43;;;7.30;85.30;;;;;;4919170;29;20068;-75
2021/01/25 03:33:05;;;;;;;13.77;8.40;;;7.30;85.30;;;;;;4918904;29;20040;-74
2021/01/25 03:35:31;;;;;;;13.85;8.40;;;7.30;85.20;;;;;;4918734;29;20517;-74
2021/01/25 03:37:57;;;;;;;13.95;8.23;;;7.30;85.20;;;;;;4918922;29;20071;-71
2021/01/25 03:40:23;;;;;;;12.10;7.60;;;7.30;85.10;;;;;;4918831;29;20067;-73
2021/01/25 03:42:49;;;;;;;11.65;7.63;;;7.30;85.10;;;;;;4918708;29;20090;-73
2021/01/25 03:45:15;;;;;;;10.57;7.63;;;7.30;85.10;;;;;;4918688;29;20096;-72
2021/01/25 03:47:41;;;;;;;12.68;8.57;;;7.30;85.00;;;;;;4918508;29;20131;-71
2021/01/25 03:50:07;;;;;;;11.05;8.00;;;7.30;84.90;;;;;;4917021;29;20075;-71
2021/01/25 03:52:33;;;;;;;11.38;7.53;;;7.30;84.90;;;;;;4918391;29;20040;-73
2021/01/25 03:54:59;;;;;;;11.38;8.02;;;7.30;84.90;;;;;;4918778;29;20095;-72
2021/01/25 03:57:25;;;;;;;11.68;8.45;;;7.30;84.90;;;;;;4918814;29;20124;-72
2021/01/25 03:59:51;;;;;;;11.10;8.00;;;7.30;84.80;;;;;;4917341;29;20115;-74
2021/01/25 04:02:17;;;;;;;13.02;7.85;;;7.30;84.80;;;;;;4918982;29;20392;-71
2021/01/25 04:04:44;;;;;;;11.13;7.88;;;7.30;84.80;;;;;;4916892;29;20040;-72
2021/01/25 04:07:13;;;;;;;11.07;7.47;;;7.30;84.80;;;;;;4917049;29;20094;-72
2021/01/25 04:09:40;;;;;;;12.07;8.02;;;7.30;84.80;;;;;;4918375;29;20130;-73
2021/01/25 04:12:07;;;;;;;11.38;7.88;;;7.30;84.80;;;;;;4917344;29;20051;-72
2021/01/25 04:14:33;;;;;;;12.40;8.23;;;7.30;84.70;;;;;;4918358;29;20095;-74
2021/01/25 04:16:59;;;;;;;12.27;8.07;;;7.30;84.60;;;;;;4916820;29;20039;-73
2021/01/25 04:19:25;;;;;;;10.45;7.10;;;7.30;84.70;;;;;;4917952;29;20054;-73
2021/01/25 04:21:51;;;;;;;12.50;7.32;;;7.20;84.60;;;;;;4918005;29;20036;-74
2021/01/25 04:24:17;;;;;;;11.20;8.02;;;7.30;84.60;;;;;;4918077;29;20048;-73
2021/01/25 04:26:44;;;;;;;12.68;7.82;;;7.30;84.60;;;;;;4916925;29;20087;-74
2021/01/25 04:29:11;;;;;;;11.20;7.35;;;7.20;84.60;;;;;;4917939;29;20044;-73
2021/01/25 04:31:37;;;;;;;11.48;8.20;;;7.20;84.60;;;;;;4916744;29;20042;-72
2021/01/25 04:34:04;;;;;;;10.50;7.80;;;7.30;84.60;;;;;;4916658;29;20095;-73
2021/01/25 04:36:30;;;;;;;10.77;7.32;;;7.20;84.50;;;;;;4917962;29;20043;-77
2021/01/25 04:38:56;;;;;;;12.70;7.82;;;7.30;84.50;;;;;;4917795;29;20036;-74
2021/01/25 04:41:22;;;;;;;13.07;8.35;;;7.20;84.40;;;;;;4916638;29;20550;-74
2021/01/25 04:43:49;;;;;;;14.18;8.55;;;7.30;84.40;;;;;;4918007;29;20085;-76
2021/01/25 04:46:15;;;;;;;14.82;8.32;;;7.20;84.30;;;;;;4916241;29;20525;-76
2021/01/25 04:48:45;;;;;;;12.15;7.43;;;7.30;84.40;;;;;;4916178;29;20503;-76
2021/01/25 04:51:13;;;;;;;11.48;7.53;;;7.30;84.30;;;;;;4917524;29;20036;-77
2021/01/25 04:53:40;;;;;;;12.30;8.60;;;7.30;84.20;;;;;;4916329;29;20040;-79
2021/01/25 04:56:08;;;;;;;11.70;8.45;;;7.20;84.20;;;;;;4900787;29;20039;-75
2021/01/25 04:58:35;;;;;;;12.55;8.13;;;7.30;84.20;;;;;;4916498;29;20411;-79
2021/01/25 05:01:01;;;;;;;12.23;8.23;;;7.20;84.20;;;;;;4916752;29;20134;-76
2021/01/25 05:03:29;;;;;;;11.80;7.43;;;7.20;84.20;;;;;;4917016;29;20052;-79
2021/01/25 05:05:55;;;;;;;11.48;7.65;;;7.20;84.20;;;;;;4917271;29;20043;-78
2021/01/25 05:08:21;;;;;;;14.05;8.10;;;7.20;84.10;;;;;;4916145;29;20051;-82
2021/01/25 05:10:48;;;;;;;12.80;7.50;;;7.20;84.10;;;;;;4917081;29;20479;-75
2021/01/25 05:13:24;;;;;;;11.15;7.78;;;7.20;84.00;;;;;;4917321;29;20028;-73
2021/01/25 05:15:52;;;;;;;13.93;7.30;;;7.30;84.00;;;;;;4916930;29;20048;-75
2021/01/25 05:18:22;;;;;;;13.75;8.23;;;7.20;83.90;;;;;;4916927;29;20074;-75
2021/01/25 05:20:56;;;;;;;13.23;7.30;;;7.20;83.80;;;;;;4915791;29;20036;-75
2021/01/25 05:23:23;;;;;;;12.25;7.88;;;7.30;84.30;;;;;;4917507;29;20100;-75
2021/01/25 05:25:50;;;;;;;14.85;7.75;;;7.30;83.60;;;;;;4915570;29;20142;-76
2021/01/25 05:28:18;;;;;;;12.70;7.85;;;7.20;83.70;;;;;;4915513;29;20036;-76
2021/01/25 05:30:46;;;;;;;13.32;8.05;;;7.30;84.00;;;;;;4916824;29;20074;-75
2021/01/25 05:33:12;;;;;;;11.85;7.22;;;7.30;84.20;;;;;;4916618;29;20075;-78
2021/01/25 05:35:38;;;;;;;13.90;8.18;;;7.30;84.50;;;;;;4915267;29;20095;-75
2021/01/25 05:38:08;;;;;;;10.75;7.50;;;7.30;84.80;;;;;;4917012;29;20055;-75
2021/01/25 05:40:39;;;;;;;13.10;7.55;;;7.30;85.10;;;;;;4915357;29;20510;-74
2021/01/25 05:43:15;;;;;;;10.90;7.05;;;7.30;85.30;;;;;;4915228;29;20123;-74
2021/01/25 05:45:42;;;;;;;12.63;7.18;;;7.30;85.20;;;;;;4916204;29;20043;-74
2021/01/25 05:48:12;;;;;;;13.00;7.75;;;7.30;85.30;;;;;;4916872;29;20036;-75
2021/01/25 05:50:40;;;;;;;13.43;7.45;;;7.30;85.30;;;;;;4915364;29;20487;-75
2021/01/25 05:53:11;;;;;;;13.00;7.65;;;7.40;85.80;;;;;;4915544;29;20495;-75
2021/01/25 05:55:38;;;;;;;10.90;7.10;;;7.40;86.40;;;;;;4915131;29;20139;-75
2021/01/25 05:58:04;;;;;;;15.50;7.85;;;7.40;87.00;;;;;;4916864;29;20047;-75
2021/01/25 06:00:32;;;;;;;11.88;6.93;;;7.40;87.30;;;;;;4899679;29;20095;-74
2021/01/25 06:02:58;;;;;;;13.50;7.45;;;7.50;87.80;;;;;;4916855;29;20047;-75
2021/01/25 06:05:34;;;;;;;11.10;7.07;;;7.50;87.70;;;;;;4915232;29;20051;-74
2021/01/25 06:08:13;;;;;;;14.23;7.50;;;7.50;88.00;;;;;;4915191;29;20071;-76
2021/01/25 06:11:03;;;;;;;12.32;7.78;;;7.60;87.90;;;;;;4916518;29;20157;-76
2021/01/25 06:14:03;;;;;;;11.13;6.40;;;7.60;88.00;;;;;;4915366;29;20043;-79
2021/01/25 06:16:33;;;;;;;12.00;6.20;;;7.60;87.90;;;;;;4910714;29;20067;-78
2021/01/25 06:19:08;;;;;;;10.23;6.90;;;7.60;87.60;;;;;;4916850;29;20498;-79
2021/01/25 06:21:38;;;;;;;13.25;7.03;;;7.70;87.70;;;;;;4914999;29;20084;-76
2021/01/25 06:24:06;;;;;;;12.18;6.50;;;7.70;87.50;;;;;;4899386;29;20044;-74
2021/01/25 06:26:34;;;;;;;12.98;6.38;;;7.70;87.50;;;;;;4916199;29;20036;-74
2021/01/25 06:29:08;;;;;;;11.98;6.88;;;7.70;87.20;;;;;;4915132;29;20052;-74
2021/01/25 06:31:39;;;;;;;11.10;6.70;;;7.80;87.30;;;;;;4915248;29;20043;-74
2021/01/25 06:34:07;;;;;;;10.35;6.07;;;7.80;87.00;;;;;;4914947;29;20044;-76
2021/01/25 06:36:34;;;;;;;11.25;6.35;;;7.80;86.90;;;;;;4915070;29;20411;-74
2021/01/25 06:39:04;;;;;;;10.07;6.57;;;7.90;86.70;;;;;;4899189;29;20047;-75
2021/01/25 06:41:37;;;;;;;14.07;6.90;;;7.90;86.60;;;;;;4914476;29;20047;-74
2021/01/25 06:44:04;;;;;;;11.35;7.50;;;7.90;86.50;;;;;;4916183;29;20060;-76
2021/01/25 06:46:33;;;;;;;11.25;5.97;;;7.90;86.40;;;;;;4899008;29;20036;-77
2021/01/25 06:48:59;;;;;;;9.80;6.15;;;7.90;86.20;;;;;;4914888;29;20410;-77
2021/01/25 06:51:27;;;;;;;12.63;6.00;;;8.00;86.30;;;;;;4899204;29;20040;-77
2021/01/25 06:53:53;;;;;;;13.07;6.45;;;8.00;86.10;;;;;;4915061;29;20043;-75
2021/01/25 06:56:20;;;;;;;10.38;6.38;;;8.00;85.80;;;;;;4898846;29;20044;-76
2021/01/25 06:58:47;;;;;;;9.52;5.88;;;8.00;85.70;;;;;;4915760;29;20057;-76
2021/01/25 07:01:21;;;;;;;14.60;6.68;;;8.00;85.70;;;;;;4915810;29;20046;-76
2021/01/25 07:03:51;;;;;;;9.50;6.38;;;8.00;85.70;;;;;;4916060;29;20115;-77
2021/01/25 07:06:18;;;;;;;10.82;6.50;;;8.00;85.40;;;;;;4914838;29;20207;-75
2021/01/25 07:08:56;;;;;;;10.70;6.47;;;8.10;85.10;;;;;;4916028;29;20063;-75
2021/01/25 07:11:25;;;;;;;10.30;5.88;;;8.10;84.90;;;;;;4915976;29;20047;-73
2021/01/25 07:13:53;;;;;;;11.85;6.63;;;8.10;84.70;;;;;;4915612;29;20060;-75
2021/01/25 07:16:23;;;;;;;10.38;6.07;;;8.20;84.60;;;;;;4914617;29;20046;-74
2021/01/25 07:18:50;;;;;;;11.52;6.78;;;8.20;84.50;;;;;;4914351;29;20087;-74
2021/01/25 07:21:18;;;;;;;10.93;5.93;;;8.20;84.40;;;;;;4915903;29;20032;-75
2021/01/25 07:23:45;;;;;;;8.10;6.38;;;8.20;84.40;;;;;;4916074;29;20048;-75
2021/01/25 07:26:14;;;;;;;12.23;6.75;;;8.20;84.30;;;;;;4917933;29;20054;-76
2021/01/25 07:28:41;;;;;;;11.30;6.63;;;8.30;84.10;;;;;;4918942;29;20043;-75
2021/01/25 07:31:08;;;;;;;11.50;6.95;;;8.30;83.80;;;;;;4918002;29;20043;-76
2021/01/25 07:33:34;;;;;;;11.60;6.45;;;8.30;83.90;;;;;;4919141;29;20088;-75
2021/01/25 07:36:00;;;;;;;10.70;7.10;;;8.30;83.80;;;;;;4917744;29;20040;-77
2021/01/25 07:38:28;;;;;;;8.82;6.47;;;8.30;83.70;;;;;;4917925;29;20131;-76
2021/01/25 07:40:58;;;;;;;10.52;6.75;;;8.30;83.50;;;;;;4918801;29;20526;-77
2021/01/25 07:43:29;;;;;;;11.50;6.88;;;8.30;83.40;;;;;;4918705;29;20056;-76
2021/01/25 07:46:06;;;;;;;12.10;7.20;;;8.40;83.30;;;;;;4918779;29;20048;-77
2021/01/25 07:48:32;;;;;;;8.50;6.50;;;8.40;83.10;;;;;;4901804;29;20492;-77
2021/01/25 07:51:01;;;;;;;13.57;7.10;;;8.40;82.60;;;;;;4918827;29;20036;-76
2021/01/25 07:53:36;;;;;;;11.40;7.45;;;8.40;82.40;;;;;;4917576;29;20032;-76
2021/01/25 07:56:05;;;;;;;11.02;7.53;;;8.40;82.40;;;;;;4917715;29;20036;-77
2021/01/25 07:58:31;;;;;;;12.32;7.80;;;8.40;82.40;;;;;;4917251;29;20039;-76
2021/01/25 08:00:56;;;;;;;9.93;6.63;;;8.50;82.40;;;;;;4918671;29;20032;-76
2021/01/25 08:03:33;;;;;;;11.80;7.20;;;8.50;82.50;;;;;;4917257;29;20040;-75
2021/01/25 08:06:04;;;;;;;14.07;7.72;;;8.50;82.60;;;;;;4918658;29;20139;-75
2021/01/25 08:08:31;;;;;;;13.07;8.20;;;8.50;82.50;;;;;;4918137;29;20040;-78
2021/01/25 08:10:58;;;;;;;12.60;8.27;;;8.50;82.50;;;;;;4918464;29;20051;-75
2021/01/25 08:13:28;;;;;;;12.13;7.80;;;8.50;82.50;;;;;;4918345;29;20067;-76
2021/01/25 08:16:17;;;;;;;11.13;8.23;;;8.50;82.60;;;;;;4918378;29;20047;-77
2021/01/25 08:19:08;;;;;;;10.77;8.43;;;8.50;82.60;;;;;;4918347;29;20043;-77
2021/01/25 08:21:38;;;;;;;13.98;8.82;;;8.50;82.20;;;;;;4918406;29;20032;-78
2021/01/25 08:24:07;;;;;;;13.55;8.90;;;8.50;82.20;;;;;;4918178;29;20177;-76
2021/01/25 08:26:34;;;;;;;12.07;7.78;;;8.50;82.00;;;;;;4916684;29;20198;-75
2021/01/25 08:29:06;;;;;;;13.02;8.60;;;8.60;82.10;;;;;;4917801;29;20055;-76
2021/01/25 08:31:44;;;;;;;12.05;8.38;;;8.60;82.00;;;;;;4917853;29;20036;-76
2021/01/25 08:34:30;;;;;;;10.93;8.60;;;8.60;81.80;;;;;;4917612;29;20084;-77
2021/01/25 08:37:00;;;;;;;12.18;8.13;;;8.60;81.80;;;;;;4916325;29;20044;-77
2021/01/25 08:39:39;;;;;;;11.68;8.32;;;8.60;81.70;;;;;;4901014;29;20032;-77
2021/01/25 08:42:19;;;;;;;12.25;7.82;;;8.60;81.90;;;;;;4916846;29;20103;-76
2021/01/25 08:44:52;;;;;;;13.27;8.55;;;8.60;81.80;;;;;;4917522;29;20048;-79
2021/01/25 08:47:29;;;;;;;11.13;8.60;;;8.70;81.70;;;;;;4916285;29;20040;-75
2021/01/25 08:49:55;;;;;;;;;;;8.70;81.70;;;;;;4917229;29;20507;-80
2021/01/25 08:52:24;;;;;;;12.50;8.23;;;8.60;81.20;;;;;;4917679;29;19922;-83
2021/01/25 08:54:50;;;;;;;11.30;8.10;;;8.70;81.30;;;;;;4900638;29;20040;-86
2021/01/25 08:57:20;;;;;;;14.85;9.18;;;8.70;80.90;;;;;;4917586;29;20048;-81
2021/01/25 08:59:46;;;;;;;11.48;8.10;;;8.70;80.90;;;;;;4917722;29;20040;-82
2021/01/25 09:02:22;;;;;;;11.02;8.48;;;8.70;80.70;;;;;;4916350;29;20043;-81
2021/01/25 09:04:52;;;;;;;11.75;8.43;;;8.70;80.60;;;;;;4917549;29;20032;-80
2021/01/25 09:07:23;;;;;;;10.68;8.52;;;8.70;80.50;;;;;;4917260;29;20494;-78
2021/01/25 09:09:49;;;;;;;11.55;8.00;;;8.70;80.30;;;;;;4917375;29;20087;-75
2021/01/25 09:12:18;;;;;;;11.27;7.80;;;8.70;80.50;;;;;;4917065;29;20051;-78
2021/01/25 09:14:44;;;;;;;8.18;7.28;;;8.70;80.50;;;;;;4915750;29;20123;-77
2021/01/25 09:17:12;;;;;;;13.35;7.70;;;8.70;80.30;;;;;;4915837;29;20044;-75
2021/01/25 09:19:39;;;;;;;10.00;7.45;;;8.80;80.40;;;;;;4917189;29;20051;-75
2021/01/25 09:22:07;;;;;;;10.73;7.20;;;8.80;80.10;;;;;;4916111;29;20032;-75
2021/01/25 09:24:33;;;;;;;8.75;6.97;;;8.80;80.20;;;;;;4915931;29;20098;-77
2021/01/25 09:26:59;;;;;;;10.38;7.30;;;8.80;80.30;;;;;;4915592;29;20558;-74
2021/01/25 09:29:25;;;;;;;10.15;6.95;;;8.80;80.30;;;;;;4917056;29;20115;-74
2021/01/25 09:31:51;;;;;;;12.20;7.28;;;8.80;80.40;;;;;;4916961;29;20491;-74
2021/01/25 09:34:17;;;;;;;7.78;6.60;;;8.80;80.60;;;;;;4916784;29;20048;-74
2021/01/25 09:36:43;;;;;;;9.95;6.85;;;8.80;80.60;;;;;;4916732;29;20047;-74
2021/01/25 09:39:10;;;;;;;11.55;7.00;;;8.80;80.70;;;;;;4916781;29;20044;-75
2021/01/25 09:41:36;;;;;;;8.50;7.40;;;8.80;80.60;;;;;;4915373;29;20443;-75
2021/01/25 09:44:03;;;;;;;11.80;6.82;;;8.80;80.40;;;;;;4900002;29;20060;-81
2021/01/25 09:46:29;;;;;;;9.77;6.25;;;8.80;80.30;;;;;;4915804;29;20151;-81
2021/01/25 09:48:55;;;;;;;12.15;6.68;;;8.80;80.10;;;;;;4916713;29;20036;-78
2021/01/25 09:51:21;;;;;;;9.23;5.95;;;8.80;80.10;;;;;;4899398;29;20032;-79
2021/01/25 09:53:47;;;;;;;7.68;6.15;;;8.80;79.80;;;;;;4916457;29;20090;-79
2021/01/25 09:56:13;;;;;;;11.30;6.40;;;8.80;79.80;;;;;;4915171;29;20040;-78
2021/01/25 09:58:39;;;;;;;10.00;6.30;;;8.90;79.60;;;;;;4915016;29;20040;-77
2021/01/25 10:01:05;;;;;;;21.40;6.30;;;8.90;79.70;;;;;;4916290;29;20122;-77
2021/01/25 10:03:31;;;;;;;9.27;6.00;;;8.90;79.30;;;;;;4916120;29;20047;-77
2021/01/25 10:05:57;;;;;;;11.13;6.88;;;8.90;79.40;;;;;;4914838;29;20052;-78
2021/01/25 10:08:23;;;;;;;9.85;6.72;;;8.90;79.60;;;;;;4899213;29;20051;-77
2021/01/25 10:10:49;;;;;;;11.57;6.40;;;8.90;80.00;;;;;;4916046;29;20537;-76
2021/01/25 10:13:15;;;;;;;8.38;6.18;;;8.90;80.30;;;;;;4915134;29;20036;-78
2021/01/25 10:15:41;;;;;;;11.70;6.50;;;8.90;80.50;;;;;;4916602;29;20040;-76
2021/01/25 10:18:07;;;;;;;12.50;6.38;;;8.90;80.70;;;;;;4899448;29;20126;-77
2021/01/25 10:20:33;;;;;;;8.77;6.45;;;8.90;80.70;;;;;;4915319;29;20047;-78
2021/01/25 10:22:59;;;;;;;8.95;6.38;;;8.90;80.90;;;;;;4915048;29;20051;-75
2021/01/25 10:25:25;;;;;;;9.75;6.30;;;8.90;81.00;;;;;;4916058;29;20048;-76
2021/01/25 10:27:52;;;;;;;8.82;6.93;;;8.90;80.90;;;;;;4916516;29;20040;-75
2021/01/25 10:30:20;;;;;;;11.18;6.25;;;8.90;80.80;;;;;;4915241;29;20051;-82
2021/01/25 10:32:46;;;;;;;7.25;6.35;;;9.00;80.80;;;;;;4915990;29;20048;-77
2021/01/25 10:35:12;;;;;;;8.85;6.38;;;8.90;80.70;;;;;;4916184;29;20497;-76
2021/01/25 10:37:40;;;;;;;14.35;6.40;;;9.00;81.00;;;;;;4916099;29;20044;-77
2021/01/25 10:40:07;;;;;;;10.25;5.88;;;9.00;80.90;;;;;;4915951;29;20529;-78
2021/01/25 10:42:33;;;;;;;8.00;6.10;;;9.00;80.90;;;;;;4914552;29;20067;-78
2021/01/25 10:44:59;;;;;;;8.80;6.43;;;9.00;80.90;;;;;;4916414;29;20095;-78
2021/01/25 10:47:25;;;;;;;8.35;6.50;;;9.00;80.90;;;;;;4914787;29;20418;-75
2021/01/25 10:49:51;;;;;;;7.80;5.75;;;9.10;81.00;;;;;;4916077;29;20059;-75
2021/01/25 10:52:18;;;;;;;8.27;6.40;;;9.10;80.80;;;;;;4914780;29;20070;-76
2021/01/25 10:54:44;;;;;;;7.68;5.85;;;9.10;80.70;;;;;;4914473;29;20047;-79
2021/01/25 10:57:10;;;;;;;10.52;6.50;;;9.10;80.50;;;;;;4915761;29;20032;-77
2021/01/25 10:59:36;;;;;;;7.35;6.10;;;9.10;80.40;;;;;;4917543;29;20040;-75
2021/01/25 11:02:05;;;;;;;9.60;6.55;;;9.10;80.30;;;;;;4919963;29;20040;-74
2021/01/25 11:04:31;;;;;;;11.43;6.53;;;9.10;80.40;;;;;;4918189;29;20050;-73
2021/01/25 11:06:57;;;;;;;8.93;6.30;;;9.10;80.30;;;;;;4919436;29;20054;-76
2021/01/25 11:09:23;;;;;;;11.43;6.10;;;9.10;80.40;;;;;;4919467;29;20414;-74
2021/01/25 11:11:50;;;;;;;9.43;6.32;;;9.10;80.10;;;;;;4918197;29;20044;-75
2021/01/25 11:14:17;;;;;;;9.98;6.28;;;9.10;80.10;;;;;;4919765;29;20136;-76
2021/01/25 11:16:43;;;;;;;9.00;6.82;;;9.10;80.30;;;;;;4917987;29;20048;-74
2021/01/25 11:19:10;;;;;;;8.82;6.63;;;9.10;80.30;;;;;;4919146;29;20042;-75
2021/01/25 11:21:36;;;;;;;9.82;6.00;;;9.10;80.30;;;;;;4919156;29;20036;-76
2021/01/25 11:24:03;;;;;;;9.98;6.15;;;9.10;80.40;;;;;;4919448;29;20107;-73
2021/01/25 11:26:33;;;;;;;8.27;6.38;;;9.10;80.40;;;;;;4918933;29;20040;-77
2021/01/25 11:28:59;;;;;;;8.77;6.68;;;9.10;81.00;;;;;;4919669;29;20058;-81
2021/01/25 11:31:25;;;;;;;9.75;6.57;;;9.10;80.30;;;;;;4919277;29;20036;-75
2021/01/25 11:33:51;;;;;;;9.05;6.60;;;9.10;80.30;;;;;;4918784;29;20040;-77
2021/01/25 11:36:17;;;;;;;8.50;6.47;;;9.10;80.30;;;;;;4917644;29;20071;-76
2021/01/25 11:38:43;;;;;;;8.43;6.22;;;9.00;80.30;;;;;;4918172;29;20060;-76
2021/01/25 11:41:09;;;;;;;9.38;6.85;;;9.00;80.40;;;;;;4919169;29;20036;-75
2021/01/25 11:43:35;;;;;;;8.45;6.68;;;9.00;80.10;;;;;;4917485;29;20091;-76
2021/01/25 11:46:00;;;;;;;10.13;7.13;;;9.00;79.90;;;;;;4902000;29;20442;-74
2021/01/25 11:48:26;;;;;;;9.88;7.13;;;9.00;80.00;;;;;;4917652;29;20059;-75
2021/01/25 11:50:52;;;;;;;10.18;7.15;;;9.00;80.10;;;;;;4901760;29;20383;-74
2021/01/25 11:53:19;;;;;;;9.55;7.15;;;9.00;80.10;;;;;;4918545;29;20507;-73
2021/01/25 11:55:46;;;;;;;8.85;6.65;;;9.00;80.00;;;;;;4917453;29;20044;-74
2021/01/25 11:58:12;;;;;;;10.05;8.18;;;9.00;79.90;;;;;;4918641;29;20064;-75
2021/01/25 12:00:39;;;;;;;10.32;6.90;;;9.00;80.00;;;;;;4917304;29;20044;-73
2021/01/25 12:03:05;;;;;;;9.70;7.80;;;9.00;79.80;;;;;;4901765;29;20036;-70
2021/01/25 12:05:31;;;;;;;8.90;6.97;;;9.00;79.90;;;;;;4917359;29;20036;-73
2021/01/25 12:07:58;;;;;;;8.88;7.18;;;9.00;79.80;;;;;;4918154;29;20048;-71
2021/01/25 12:10:24;;;;;;;11.63;8.10;;;9.00;80.20;;;;;;4916979;29;20095;-75
2021/01/25 12:12:50;;;;;;;9.95;7.25;;;8.90;80.30;;;;;;4917326;29;20040;-75
2021/01/25 12:15:16;;;;;;;11.68;7.65;;;8.90;80.20;;;;;;4918593;29;20044;-72
2021/01/25 12:17:42;;;;;;;13.52;7.32;;;8.90;80.40;;;;;;4918158;29;20040;-72
2021/01/25 12:20:09;;;;;;;8.20;6.93;;;8.90;80.60;;;;;;4916915;29;20036;-73
2021/01/25 12:22:35;;;;;;;8.70;6.80;;;8.90;80.70;;;;;;4916818;29;20047;-72
2021/01/25 12:25:01;;;;;;;9.90;7.15;;;8.90;80.90;;;;;;4918080;29;20050;-73
2021/01/25 12:27:27;;;;;;;10.18;6.90;;;8.90;81.20;;;;;;4916770;29;20126;-74
2021/01/25 12:30:04;;;;;;;10.57;7.85;;;8.90;81.20;;;;;;4916812;29;20509;-74
2021/01/25 12:32:30;;;;;;;9.35;7.70;;;8.90;81.40;;;;;;4916670;29;20051;-72
2021/01/25 12:34:56;;;;;;;10.38;7.70;;;8.80;81.30;;;;;;4916486;29;20036;-71
2021/01/25 12:37:22;;;;;;;9.45;7.35;;;8.80;81.40;;;;;;4916581;29;20179;-70
2021/01/25 12:39:48;;;;;;;13.07;7.35;;;8.80;81.50;;;;;;4916386;29;20131;-71
2021/01/25 12:42:13;;;;;;;10.02;7.97;;;8.80;81.60;;;;;;4916556;29;20036;-72
2021/01/25 12:44:41;;;;;;;9.68;7.70;;;8.80;81.80;;;;;;4917625;29;20606;-71
2021/01/25 12:47:07;;;;;;;11.45;7.43;;;8.80;81.90;;;;;;4916383;29;20098;-72
2021/01/25 12:49:33;;;;;;;9.63;7.80;;;8.80;81.90;;;;;;4901170;29;20525;-72
2021/01/25 12:51:59;;;;;;;7.65;6.68;;;8.80;82.00;;;;;;4917638;29;20036;-73